createdAt,value
2023-05-04T00:02:19.811Z,99.90
2023-05-04T00:04:46.742Z,99.90
2023-05-04T00:07:13.508Z,99.90
2023-05-04T00:09:40.193Z,99.90
2023-05-04T00:12:08.120Z,99.90
2023-05-04T00:14:35.425Z,99.90
2023-05-04T00:17:04.900Z,99.90
2023-05-04T00:19:32.582Z,99.90
2023-05-04T00:21:59.371Z,99.90
2023-05-04T00:24:26.289Z,99.90
2023-05-04T00:26:53.083Z,99.90
2023-05-04T00:29:19.753Z,99.90
2023-05-04T00:31:46.490Z,99.90
2023-05-04T00:34:13.237Z,99.90
2023-05-04T00:36:39.900Z,99.90
2023-05-04T00:39:06.909Z,99.90
2023-05-04T00:41:33.743Z,99.90
2023-05-04T00:44:00.515Z,99.90
2023-05-04T00:46:27.286Z,99.90
2023-05-04T00:48:54.232Z,99.90
2023-05-04T00:51:23.292Z,99.90
2023-05-04T00:53:50.710Z,99.90
2023-05-04T00:56:18.052Z,99.90
2023-05-04T00:58:46.036Z,99.90
2023-05-04T01:01:12.782Z,99.90
2023-05-04T01:03:40.663Z,99.90
2023-05-04T01:06:24.674Z,99.90
2023-05-04T01:09:18.430Z,99.90
2023-05-04T01:11:59.024Z,99.90
2023-05-04T01:14:25.921Z,99.90
2023-05-04T01:16:59.011Z,99.90
2023-05-04T01:19:28.167Z,99.90
2023-05-04T01:21:56.404Z,99.90
2023-05-04T01:24:24.661Z,99.90
2023-05-04T01:27:08.814Z,99.90
2023-05-04T01:29:40.700Z,99.90
2023-05-04T01:32:08.359Z,99.90
2023-05-04T01:34:36.810Z,99.90
2023-05-04T01:37:03.890Z,99.90
2023-05-04T01:39:30.712Z,99.90
2023-05-04T01:41:57.424Z,99.90
2023-05-04T01:44:24.231Z,99.90
2023-05-04T01:46:50.949Z,99.90
2023-05-04T01:49:17.686Z,99.90
2023-05-04T01:51:45.673Z,99.90
2023-05-04T01:54:12.797Z,99.90
2023-05-04T01:56:39.520Z,99.90
2023-05-04T01:59:06.194Z,99.90
2023-05-04T02:01:33.024Z,99.90
2023-05-04T02:04:00.045Z,99.90
2023-05-04T02:06:26.845Z,99.90
2023-05-04T02:08:53.522Z,99.90
2023-05-04T02:11:21.077Z,99.90
2023-05-04T02:13:47.756Z,99.90
2023-05-04T02:16:14.574Z,99.90
2023-05-04T02:18:41.458Z,99.90
2023-05-04T02:21:08.205Z,99.90
2023-05-04T02:23:34.986Z,99.90
2023-05-04T02:26:01.709Z,99.90
2023-05-04T02:28:28.389Z,99.90
2023-05-04T02:30:55.087Z,99.90
2023-05-04T02:33:21.816Z,99.90
2023-05-04T02:35:48.574Z,99.90
2023-05-04T02:38:15.291Z,99.90
2023-05-04T02:40:42.119Z,99.90
2023-05-04T02:43:08.827Z,99.90
2023-05-04T02:45:35.981Z,99.90
2023-05-04T02:48:03.299Z,99.90
2023-05-04T02:50:31.343Z,99.90
2023-05-04T02:52:58.119Z,99.90
2023-05-04T02:55:24.776Z,99.90
2023-05-04T02:57:51.470Z,99.90
2023-05-04T03:00:18.542Z,99.90
2023-05-04T03:02:45.329Z,99.90
2023-05-04T03:05:12.025Z,99.90
2023-05-04T03:07:38.706Z,99.90
2023-05-04T03:10:06.370Z,99.90
2023-05-04T03:12:33.289Z,99.90
2023-05-04T03:15:00.069Z,99.90
2023-05-04T03:17:27.799Z,99.90
2023-05-04T03:19:54.469Z,99.90
2023-05-04T03:22:21.200Z,99.90
2023-05-04T03:24:48.082Z,99.90
2023-05-04T03:27:14.854Z,99.90
2023-05-04T03:29:41.562Z,99.90
2023-05-04T03:32:08.262Z,99.90
2023-05-04T03:34:35.654Z,99.90
2023-05-04T03:37:02.444Z,99.90
2023-05-04T03:39:29.188Z,99.90
2023-05-04T03:41:55.911Z,99.90
2023-05-04T03:44:22.555Z,99.90
2023-05-04T03:46:49.384Z,99.90
2023-05-04T03:49:16.088Z,99.90
2023-05-04T03:51:43.592Z,99.90
2023-05-04T03:54:10.379Z,99.90
2023-05-04T03:56:37.042Z,99.90
2023-05-04T03:59:04.021Z,99.90
2023-05-04T04:01:30.783Z,99.90
2023-05-04T04:03:57.581Z,99.90
2023-05-04T04:06:25.408Z,99.90
2023-05-04T04:08:52.312Z,99.90
2023-05-04T04:11:19.310Z,99.90
2023-05-04T04:13:46.082Z,99.90
2023-05-04T04:16:12.909Z,99.90
2023-05-04T04:18:39.745Z,99.90
2023-05-04T04:21:06.644Z,99.90
2023-05-04T04:23:33.515Z,99.90
2023-05-04T04:26:01.530Z,99.90
2023-05-04T04:28:28.720Z,99.90
2023-05-04T04:30:56.065Z,99.90
2023-05-04T04:33:22.870Z,99.90
2023-05-04T04:35:52.368Z,99.90
2023-05-04T04:38:19.360Z,99.90
2023-05-04T04:40:46.031Z,99.90
2023-05-04T04:43:13.142Z,99.90
2023-05-04T04:45:41.276Z,99.90
2023-05-04T04:48:09.041Z,99.90
2023-05-04T04:50:38.997Z,99.90
2023-05-04T04:53:05.842Z,99.90
2023-05-04T04:55:32.574Z,99.90
2023-05-04T04:57:59.231Z,99.90
2023-05-04T05:00:26.247Z,99.90
2023-05-04T05:02:53.670Z,99.90
2023-05-04T05:05:21.413Z,99.90
2023-05-04T05:07:48.164Z,99.90
2023-05-04T05:10:14.982Z,99.90
2023-05-04T05:12:41.743Z,99.90
2023-05-04T05:15:09.365Z,99.90
2023-05-04T05:17:37.653Z,99.90
2023-05-04T05:20:10.565Z,99.90
2023-05-04T05:22:40.393Z,99.90
2023-05-04T05:25:08.095Z,99.90
2023-05-04T05:27:35.196Z,99.90
2023-05-04T05:30:03.272Z,99.90
2023-05-04T05:32:30.641Z,99.90
2023-05-04T05:34:57.755Z,99.90
2023-05-04T05:37:24.466Z,99.90
2023-05-04T05:39:51.228Z,99.90
2023-05-04T05:42:18.179Z,99.90
2023-05-04T05:44:44.970Z,99.90
2023-05-04T05:47:11.688Z,99.90
2023-05-04T05:49:38.449Z,99.90
2023-05-04T05:52:05.521Z,99.90
2023-05-04T05:54:32.555Z,99.90
2023-05-04T05:56:59.389Z,99.90
2023-05-04T05:59:26.064Z,99.90
2023-05-04T06:01:52.700Z,99.90
2023-05-04T06:04:19.532Z,99.90
2023-05-04T06:06:46.777Z,99.90
2023-05-04T06:09:13.438Z,99.90
2023-05-04T06:11:40.582Z,99.90
2023-05-04T06:14:07.548Z,99.90
2023-05-04T06:16:34.332Z,99.90
2023-05-04T06:19:01.057Z,99.90
2023-05-04T06:21:27.711Z,99.90
2023-05-04T06:23:54.371Z,99.90
2023-05-04T06:26:22.106Z,99.90
2023-05-04T06:28:48.807Z,99.90
2023-05-04T06:31:15.552Z,99.90
2023-05-04T06:33:42.326Z,99.90
2023-05-04T06:36:09.264Z,99.90
2023-05-04T06:38:38.033Z,99.90
2023-05-04T06:41:06.022Z,99.90
2023-05-04T06:43:33.091Z,99.90
2023-05-04T06:46:05.925Z,99.90
2023-05-04T06:51:01.564Z,99.90
2023-05-04T06:53:29.242Z,99.90
2023-05-04T06:55:56.053Z,99.90
2023-05-04T06:58:23.128Z,99.90
2023-05-04T07:00:49.838Z,99.90
2023-05-04T07:03:16.600Z,99.90
2023-05-04T07:05:45.294Z,99.90
2023-05-04T07:08:12.555Z,99.90
2023-05-04T07:10:39.455Z,99.90
2023-05-04T07:13:06.960Z,99.90
2023-05-04T07:15:34.056Z,99.90
2023-05-04T07:18:01.324Z,99.90
2023-05-04T07:20:28.450Z,99.90
2023-05-04T07:22:58.642Z,99.90
2023-05-04T07:25:26.169Z,99.90
2023-05-04T07:27:53.141Z,99.90
2023-05-04T07:30:21.355Z,99.90
2023-05-04T07:32:48.213Z,99.90
2023-05-04T07:35:15.257Z,99.90
2023-05-04T07:37:42.149Z,99.90
2023-05-04T07:40:09.604Z,99.90
2023-05-04T07:42:36.349Z,99.90
2023-05-04T07:45:03.663Z,99.90
2023-05-04T07:47:30.592Z,99.90
2023-05-04T07:49:57.275Z,99.90
2023-05-04T07:52:23.965Z,99.90
2023-05-04T07:54:54.141Z,99.90
2023-05-04T07:57:21.875Z,99.90
2023-05-04T07:59:48.672Z,99.90
2023-05-04T08:02:15.830Z,99.90
2023-05-04T08:04:42.595Z,99.90
2023-05-04T08:07:09.326Z,99.90
2023-05-04T08:09:36.023Z,99.90
2023-05-04T08:12:04.394Z,99.90
2023-05-04T08:14:31.447Z,99.90
2023-05-04T08:16:58.124Z,99.90
2023-05-04T08:19:24.901Z,99.90
2023-05-04T08:21:51.638Z,99.90
2023-05-04T08:24:18.491Z,99.90
2023-05-04T08:26:49.569Z,99.90
2023-05-04T08:29:22.561Z,99.90
2023-05-04T08:31:49.801Z,99.90
2023-05-04T08:34:16.588Z,99.90
2023-05-04T08:36:43.282Z,99.90
2023-05-04T08:39:11.941Z,99.90
2023-05-04T08:41:41.887Z,99.90
2023-05-04T08:44:10.908Z,99.90
2023-05-04T08:46:41.158Z,99.90
2023-05-04T08:49:07.993Z,99.90
2023-05-04T08:51:37.461Z,99.90
2023-05-04T08:54:10.673Z,99.90
2023-05-04T08:56:38.969Z,99.90
2023-05-04T08:59:08.235Z,99.90
2023-05-04T09:01:38.078Z,99.90
2023-05-04T09:04:05.530Z,99.90
2023-05-04T09:06:32.461Z,99.90
2023-05-04T09:08:59.120Z,99.90
2023-05-04T09:11:25.842Z,99.90
2023-05-04T09:13:52.698Z,99.90
2023-05-04T09:16:20.110Z,99.90
2023-05-04T09:18:47.262Z,99.90
2023-05-04T09:21:16.960Z,99.90
2023-05-04T09:23:51.433Z,99.90
2023-05-04T09:26:28.442Z,99.90
2023-05-04T09:28:55.144Z,99.90
2023-05-04T09:31:23.335Z,99.90
2023-05-04T09:33:51.964Z,99.90
2023-05-04T09:36:21.923Z,99.90
2023-05-04T09:38:49.058Z,99.90
2023-05-04T09:41:16.013Z,99.90
2023-05-04T09:43:44.918Z,99.90
2023-05-04T09:46:18.749Z,99.90
2023-05-04T09:48:53.185Z,99.90
2023-05-04T09:51:22.428Z,99.90
2023-05-04T09:53:50.561Z,99.90
2023-05-04T09:56:30.239Z,99.90
2023-05-04T09:58:58.730Z,99.90
2023-05-04T10:01:32.178Z,99.90
2023-05-04T10:03:59.342Z,99.90
2023-05-04T10:06:29.853Z,99.90
2023-05-04T10:08:58.849Z,99.90
2023-05-04T10:11:26.411Z,99.90
2023-05-04T10:13:56.283Z,99.90
2023-05-04T10:16:41.401Z,99.90
2023-05-04T10:19:35.817Z,99.90
2023-05-04T10:22:27.249Z,99.90
2023-05-04T10:25:25.005Z,99.90
2023-05-04T10:27:54.887Z,99.90
2023-05-04T10:30:22.884Z,99.90
2023-05-04T10:32:57.507Z,99.90
2023-05-04T10:35:25.279Z,99.90
2023-05-04T10:37:54.562Z,99.90
2023-05-04T10:40:42.105Z,99.90
2023-05-04T10:43:11.623Z,99.90
2023-05-04T10:45:40.580Z,99.90
2023-05-04T10:48:08.557Z,99.90
2023-05-04T10:51:32.664Z,99.90
2023-05-04T11:35:32.559Z,98.50
2023-05-04T11:37:59.400Z,98.10
2023-05-04T11:40:27.565Z,97.90
2023-05-04T11:42:57.273Z,98.00
2023-05-04T11:45:27.033Z,97.90
2023-05-04T11:47:56.683Z,97.70
2023-05-04T11:50:24.689Z,97.60
2023-05-04T11:52:51.442Z,96.80
2023-05-04T11:55:31.233Z,96.30
2023-05-04T11:58:11.553Z,95.80
2023-05-04T12:00:41.817Z,95.60
2023-05-04T12:03:15.061Z,95.20
2023-05-04T12:05:53.105Z,94.60
2023-05-04T12:08:24.160Z,94.40
2023-05-04T12:10:51.326Z,94.30
2023-05-04T12:13:18.256Z,94.20
2023-05-04T12:15:45.015Z,94.20
2023-05-04T12:18:22.901Z,94.10
2023-05-04T12:20:50.964Z,94.60
2023-05-04T12:23:17.814Z,93.80
2023-05-04T12:25:57.446Z,93.70
2023-05-04T12:28:26.975Z,93.60
2023-05-04T12:30:54.136Z,93.50
2023-05-04T12:33:20.829Z,93.40
2023-05-04T12:35:48.029Z,93.20
2023-05-04T12:38:15.029Z,93.30
2023-05-04T12:40:43.438Z,94.10
2023-05-04T12:43:10.379Z,93.30
2023-05-04T12:45:37.826Z,92.60
2023-05-04T12:48:04.848Z,92.10
2023-05-04T12:50:31.607Z,92.00
2023-05-04T12:52:58.416Z,92.30
2023-05-04T12:55:25.758Z,92.70
2023-05-04T12:57:52.436Z,92.50
2023-05-04T13:00:19.879Z,91.90
2023-05-04T13:02:46.738Z,91.10
2023-05-04T13:05:13.897Z,90.90
2023-05-04T13:07:40.797Z,91.40
2023-05-04T13:10:08.150Z,91.10
2023-05-04T13:12:34.926Z,91.40
2023-05-04T13:15:01.687Z,90.30
2023-05-04T13:17:29.676Z,90.10
2023-05-04T13:19:56.476Z,90.50
2023-05-04T13:22:23.220Z,90.60
2023-05-04T13:24:49.897Z,90.40
2023-05-04T13:27:16.558Z,90.20
2023-05-04T13:29:44.155Z,89.50
2023-05-04T13:32:10.991Z,89.50
2023-05-04T13:34:37.745Z,89.60
2023-05-04T13:37:04.549Z,89.00
2023-05-04T13:39:40.178Z,88.10
2023-05-04T13:42:07.446Z,86.80
2023-05-04T13:44:34.409Z,86.80
2023-05-04T13:47:03.280Z,87.10
2023-05-04T13:49:30.590Z,88.20
2023-05-04T13:51:57.607Z,88.20
2023-05-04T13:54:24.321Z,87.20
2023-05-04T13:56:52.645Z,87.10
2023-05-04T13:59:20.257Z,87.20
2023-05-04T14:01:47.107Z,87.30
2023-05-04T14:04:13.932Z,87.90
2023-05-04T14:06:40.594Z,86.80
2023-05-04T14:09:08.681Z,85.30
2023-05-04T14:11:35.513Z,85.50
2023-05-04T14:14:02.250Z,85.70
2023-05-04T14:16:28.996Z,85.40
2023-05-04T14:18:56.571Z,83.40
2023-05-04T14:21:23.236Z,82.90
2023-05-04T14:23:49.900Z,82.90
2023-05-04T14:26:16.660Z,83.00
2023-05-04T14:28:43.304Z,85.00
2023-05-04T14:31:09.967Z,85.10
2023-05-04T14:33:38.050Z,84.60
2023-05-04T14:36:04.998Z,84.40
2023-05-04T14:38:32.688Z,84.90
2023-05-04T14:40:59.389Z,85.50
2023-05-04T14:43:26.248Z,86.40
2023-05-04T14:45:53.247Z,86.00
2023-05-04T14:48:22.961Z,85.10
2023-05-04T14:50:49.894Z,84.10
2023-05-04T14:53:16.614Z,84.00
2023-05-04T14:55:43.595Z,84.40
2023-05-04T14:58:10.916Z,81.70
2023-05-04T15:00:38.181Z,81.80
2023-05-04T15:03:05.584Z,82.80
2023-05-04T15:05:32.492Z,83.30
2023-05-04T15:07:59.777Z,84.80
2023-05-04T15:10:26.898Z,84.40
2023-05-04T15:12:54.616Z,83.70
2023-05-04T15:15:21.863Z,83.50
2023-05-04T15:17:49.375Z,83.90
2023-05-04T15:20:16.906Z,84.70
2023-05-04T15:22:47.378Z,85.10
2023-05-04T15:25:14.142Z,84.80
2023-05-04T15:27:41.014Z,85.00
2023-05-04T15:30:09.373Z,84.20
2023-05-04T15:32:36.480Z,84.60
2023-05-04T15:35:05.845Z,86.20
2023-05-04T15:37:33.502Z,86.40
2023-05-04T15:40:02.560Z,86.00
2023-05-04T15:42:29.710Z,85.80
2023-05-04T15:44:56.386Z,85.50
2023-05-04T15:47:23.393Z,86.10
2023-05-04T15:49:50.149Z,86.50
2023-05-04T15:52:17.136Z,86.30
2023-05-04T15:54:47.278Z,86.30
2023-05-04T15:57:15.173Z,86.80
2023-05-04T15:59:42.011Z,86.30
2023-05-04T16:02:09.765Z,87.20
2023-05-04T16:04:36.583Z,86.10
2023-05-04T16:07:03.333Z,86.00
2023-05-04T16:09:31.288Z,86.70
2023-05-04T16:11:58.066Z,88.10
2023-05-04T16:14:24.829Z,88.10
2023-05-04T16:16:51.663Z,87.90
2023-05-04T16:19:24.943Z,88.00
2023-05-04T16:21:53.930Z,88.50
2023-05-04T16:24:22.160Z,88.50
2023-05-04T16:27:11.271Z,88.60
2023-05-04T16:29:43.905Z,87.40
2023-05-04T16:32:33.714Z,87.30
2023-05-04T16:35:09.066Z,87.10
2023-05-04T16:37:44.281Z,87.30
2023-05-04T16:43:16.460Z,88.40
2023-05-04T16:45:43.300Z,87.60
2023-05-04T16:48:12.664Z,86.90
2023-05-04T16:50:39.785Z,86.40
2023-05-04T16:53:06.687Z,86.00
2023-05-04T16:55:35.931Z,86.00
2023-05-04T16:58:02.694Z,85.80
2023-05-04T17:00:34.208Z,85.70
2023-05-04T17:03:01.138Z,84.70
2023-05-04T17:05:28.344Z,84.60
2023-05-04T17:07:55.218Z,83.90
2023-05-04T17:10:22.076Z,83.90
2023-05-04T17:12:52.307Z,84.20
2023-05-04T17:15:19.105Z,84.80
2023-05-04T17:17:46.733Z,84.70
2023-05-04T17:20:15.139Z,84.50
2023-05-04T17:22:45.721Z,85.10
2023-05-04T17:25:12.937Z,85.40
2023-05-04T17:27:40.095Z,85.30
2023-05-04T17:30:07.562Z,84.90
2023-05-04T17:32:36.034Z,84.60
2023-05-04T17:35:12.196Z,84.80
2023-05-04T17:37:50.691Z,84.70
2023-05-04T17:40:18.529Z,85.20
2023-05-04T17:42:45.322Z,86.20
2023-05-04T17:45:12.385Z,85.80
2023-05-04T17:47:39.167Z,86.80
2023-05-04T17:50:06.353Z,86.10
2023-05-04T17:52:33.229Z,86.50
2023-05-04T17:55:00.205Z,86.80
2023-05-04T17:57:27.039Z,86.20
2023-05-04T17:59:53.812Z,86.10
2023-05-04T18:02:20.638Z,86.10
2023-05-04T18:04:47.375Z,86.20
2023-05-04T18:07:14.209Z,86.60
2023-05-04T18:09:40.991Z,87.20
2023-05-04T18:12:09.133Z,87.50
2023-05-04T18:14:35.912Z,87.70
2023-05-04T18:17:02.684Z,88.30
2023-05-04T18:19:29.556Z,88.50
2023-05-04T18:21:56.276Z,88.80
2023-05-04T18:24:23.053Z,89.30
2023-05-04T18:26:52.690Z,89.70
2023-05-04T18:29:19.859Z,89.90
2023-05-04T18:31:46.908Z,90.00
2023-05-04T18:34:13.751Z,90.20
2023-05-04T18:36:40.563Z,90.40
2023-05-04T18:39:08.336Z,90.40
2023-05-04T18:41:35.142Z,90.60
2023-05-04T18:44:02.000Z,90.80
2023-05-04T18:46:28.806Z,91.00
2023-05-04T18:48:56.258Z,91.20
2023-05-04T18:51:23.202Z,91.30
2023-05-04T18:53:50.176Z,91.60
2023-05-04T18:56:16.973Z,91.70
2023-05-04T18:58:43.751Z,92.00
2023-05-04T19:01:10.812Z,92.20
2023-05-04T19:03:37.555Z,92.30
2023-05-04T19:06:04.430Z,92.50
2023-05-04T19:08:31.326Z,92.70
2023-05-04T19:11:03.178Z,92.90
2023-05-04T19:13:30.304Z,93.10
2023-05-04T19:15:57.565Z,93.10
2023-05-04T19:18:24.605Z,93.30
2023-05-04T19:20:51.368Z,93.30
2023-05-04T19:23:18.260Z,93.60
2023-05-04T19:25:45.447Z,93.70
2023-05-04T19:28:12.522Z,94.00
2023-05-04T19:30:40.446Z,94.30
2023-05-04T19:33:08.481Z,94.70
2023-05-04T19:35:35.695Z,94.70
2023-05-04T19:38:02.534Z,95.10
2023-05-04T19:40:29.211Z,94.90
2023-05-04T19:42:55.929Z,95.00
2023-05-04T19:45:22.626Z,95.10
2023-05-04T19:47:50.595Z,95.30
2023-05-04T19:50:17.925Z,95.70
2023-05-04T19:52:44.775Z,96.00
2023-05-04T19:55:11.514Z,96.20
2023-05-04T19:57:38.265Z,96.40
2023-05-04T20:00:06.059Z,96.70
2023-05-04T20:02:33.175Z,97.10
2023-05-04T20:04:59.964Z,97.40
2023-05-04T20:07:26.940Z,97.90
2023-05-04T20:09:53.628Z,98.00
2023-05-04T20:12:20.392Z,98.30
2023-05-04T20:14:47.245Z,98.50
2023-05-04T20:17:14.400Z,98.80
2023-05-04T20:19:42.914Z,99.10
2023-05-04T20:22:09.956Z,99.50
2023-05-04T20:24:36.611Z,99.80
2023-05-04T20:27:03.744Z,99.90
2023-05-04T20:29:30.474Z,99.90
2023-05-04T20:31:57.295Z,99.90
2023-05-04T20:34:24.183Z,99.90
2023-05-04T20:36:50.856Z,99.90
2023-05-04T20:39:18.037Z,99.90
2023-05-04T20:41:44.783Z,99.90
2023-05-04T20:44:11.732Z,99.90
2023-05-04T20:46:38.458Z,99.90
2023-05-04T20:49:05.193Z,99.90
2023-05-04T20:51:32.437Z,99.90
2023-05-04T20:53:59.193Z,99.90
2023-05-04T20:56:25.980Z,99.90
2023-05-04T20:58:52.826Z,99.90
2023-05-04T21:01:19.608Z,99.90
2023-05-04T21:03:46.614Z,99.90
2023-05-04T21:06:13.399Z,99.90
2023-05-04T21:08:40.148Z,99.90
2023-05-04T21:11:06.839Z,99.90
2023-05-04T21:13:33.565Z,99.90
2023-05-04T21:16:00.320Z,99.90
2023-05-04T21:18:27.260Z,99.90
2023-05-04T21:20:53.979Z,99.90
2023-05-04T21:23:20.663Z,99.90
2023-05-04T21:25:47.440Z,99.90
2023-05-04T21:28:14.091Z,99.90
2023-05-04T21:30:42.105Z,99.90
2023-05-04T21:33:08.783Z,99.90
2023-05-04T21:35:35.539Z,99.90
2023-05-04T21:38:02.179Z,99.90
2023-05-04T21:40:29.043Z,99.90
2023-05-04T21:42:55.774Z,99.90
2023-05-04T21:45:22.436Z,99.90
2023-05-04T21:47:49.195Z,99.90
2023-05-04T21:50:16.350Z,99.90
2023-05-04T21:52:43.043Z,99.90
2023-05-04T21:55:09.892Z,99.90
2023-05-04T21:57:37.288Z,99.90
2023-05-04T22:00:11.898Z,99.90
2023-05-04T22:02:39.128Z,99.90
2023-05-04T22:05:06.181Z,99.90
2023-05-04T22:07:33.426Z,99.90
2023-05-04T22:10:01.590Z,99.90
2023-05-04T22:12:28.263Z,99.90
2023-05-04T22:14:54.894Z,99.90
2023-05-04T22:17:21.757Z,99.90
2023-05-04T22:19:48.504Z,99.90
2023-05-04T22:22:15.280Z,99.90
2023-05-04T22:24:41.993Z,99.90
2023-05-04T22:27:08.662Z,99.90
2023-05-04T22:29:35.782Z,99.90
2023-05-04T22:32:02.832Z,99.90
2023-05-04T22:34:29.555Z,99.90
2023-05-04T22:36:56.293Z,99.90
2023-05-04T22:39:23.026Z,99.90
2023-05-04T22:41:49.673Z,99.90
2023-05-04T22:44:16.313Z,99.90
2023-05-04T22:46:43.046Z,99.90
2023-05-04T22:49:10.059Z,99.90
2023-05-04T22:51:37.014Z,99.90
2023-05-04T22:54:03.882Z,99.90
2023-05-04T22:56:32.511Z,99.90
2023-05-04T22:58:59.406Z,99.90
2023-05-04T23:01:27.482Z,99.90
2023-05-04T23:03:54.651Z,99.90
2023-05-04T23:06:21.536Z,99.90
2023-05-04T23:08:48.224Z,99.90
2023-05-04T23:11:19.866Z,99.90
2023-05-04T23:13:46.598Z,99.90
2023-05-04T23:16:13.490Z,99.90
2023-05-04T23:18:40.182Z,99.90
2023-05-04T23:21:06.857Z,99.90
2023-05-04T23:23:34.705Z,99.90
2023-05-04T23:26:01.387Z,99.90
2023-05-04T23:28:28.054Z,99.90
2023-05-04T23:30:55.792Z,99.90
2023-05-04T23:33:22.587Z,99.90
2023-05-04T23:35:49.289Z,99.90
2023-05-04T23:38:16.013Z,99.90
2023-05-04T23:40:42.640Z,99.90
2023-05-04T23:43:09.299Z,99.90
2023-05-04T23:45:35.961Z,99.90
2023-05-04T23:48:02.801Z,99.90
2023-05-04T23:50:29.569Z,99.90
2023-05-04T23:52:56.315Z,99.90
2023-05-04T23:55:22.996Z,99.90
2023-05-04T23:57:49.748Z,99.90
